sensor_id;sensor_type;location;lat;lon;timestamp;temperature;humidity
9385;DHT22;4732;49.340;10.886;2023-06-22T03:01:01;16.50;99.90
9385;DHT22;4732;49.340;10.886;2023-06-22T03:03:30;16.60;99.90
9385;DHT22;4732;49.340;10.886;2023-06-22T03:05:55;16.60;99.90
9385;DHT22;4732;49.340;10.886;2023-06-22T03:08:21;16.70;99.90
9385;DHT22;4732;49.340;10.886;2023-06-22T03:10:46;16.80;99.90
9385;DHT22;4732;49.340;10.886;2023-06-22T03:13:12;16.80;99.90
9385;DHT22;4732;49.340;10.886;2023-06-22T03:15:37;16.80;99.90
9385;DHT22;4732;49.340;10.886;2023-06-22T03:18:03;16.80;99.90
9385;DHT22;4732;49.340;10.886;2023-06-22T03:20:28;16.90;99.90
9385;DHT22;4732;49.340;10.886;2023-06-22T03:22:58;16.90;99.90
9385;DHT22;4732;49.340;10.886;2023-06-22T03:25:24;16.90;99.90
9385;DHT22;4732;49.340;10.886;2023-06-22T03:27:49;17.00;99.90
9385;DHT22;4732;49.340;10.886;2023-06-22T03:30:15;17.00;99.90
9385;DHT22;4732;49.340;10.886;2023-06-22T03:32:40;16.90;99.90
9385;DHT22;4732;49.340;10.886;2023-06-22T03:35:08;17.10;99.90
9385;DHT22;4732;49.340;10.886;2023-06-22T03:37:33;17.10;99.90
9385;DHT22;4732;49.340;10.886;2023-06-22T03:39:59;17.10;99.90
9385;DHT22;4732;49.340;10.886;2023-06-22T03:42:25;17.10;99.90
9385;DHT22;4732;49.340;10.886;2023-06-22T03:44:51;17.10;99.90
9385;DHT22;4732;49.340;10.886;2023-06-22T03:47:17;17.10;99.90
9385;DHT22;4732;49.340;10.886;2023-06-22T03:49:43;17.20;99.90
9385;DHT22;4732;49.340;10.886;2023-06-22T03:52:08;17.20;99.90
9385;DHT22;4732;49.340;10.886;2023-06-22T03:54:34;17.20;99.90
9385;DHT22;4732;49.340;10.886;2023-06-22T03:57:00;17.20;99.90
9385;DHT22;4732;49.340;10.886;2023-06-22T03:59:25;17.30;99.90
9385;DHT22;4732;49.340;10.886;2023-06-22T04:01:51;17.20;99.90
9385;DHT22;4732;49.340;10.886;2023-06-22T04:04:20;17.30;99.90
9385;DHT22;4732;49.340;10.886;2023-06-22T04:06:45;17.30;99.90
9385;DHT22;4732;49.340;10.886;2023-06-22T04:09:11;17.30;99.90
9385;DHT22;4732;49.340;10.886;2023-06-22T04:11:37;17.30;99.90
9385;DHT22;4732;49.340;10.886;2023-06-22T04:14:03;17.40;99.90
9385;DHT22;4732;49.340;10.886;2023-06-22T04:16:28;17.40;99.90
9385;DHT22;4732;49.340;10.886;2023-06-22T04:18:54;17.40;99.90
9385;DHT22;4732;49.340;10.886;2023-06-22T04:21:19;17.40;99.90
9385;DHT22;4732;49.340;10.886;2023-06-22T04:23:45;17.40;99.90
9385;DHT22;4732;49.340;10.886;2023-06-22T04:26:12;17.40;99.90
9385;DHT22;4732;49.340;10.886;2023-06-22T04:28:37;17.50;99.90
9385;DHT22;4732;49.340;10.886;2023-06-22T04:31:03;17.80;99.90
9385;DHT22;4732;49.340;10.886;2023-06-22T04:33:28;17.90;99.90
9385;DHT22;4732;49.340;10.886;2023-06-22T04:35:57;17.80;99.90
9385;DHT22;4732;49.340;10.886;2023-06-22T04:38:24;17.70;99.90
9385;DHT22;4732;49.340;10.886;2023-06-22T04:40:50;17.80;99.90
9385;DHT22;4732;49.340;10.886;2023-06-22T04:43:16;17.90;99.90
9385;DHT22;4732;49.340;10.886;2023-06-22T04:45:41;18.10;99.90
9385;DHT22;4732;49.340;10.886;2023-06-22T04:48:07;18.20;99.90
9385;DHT22;4732;49.340;10.886;2023-06-22T04:50:34;18.30;99.90
9385;DHT22;4732;49.340;10.886;2023-06-22T04:52:59;18.20;99.90
9385;DHT22;4732;49.340;10.886;2023-06-22T04:55:25;18.30;99.90
9385;DHT22;4732;49.340;10.886;2023-06-22T04:57:51;18.30;99.90
9385;DHT22;4732;49.340;10.886;2023-06-22T05:00:18;18.50;99.90
9385;DHT22;4732;49.340;10.886;2023-06-22T05:02:45;18.70;99.90
9385;DHT22;4732;49.340;10.886;2023-06-22T05:05:11;18.80;99.90
9385;DHT22;4732;49.340;10.886;2023-06-22T05:07:40;18.90;99.90
9385;DHT22;4732;49.340;10.886;2023-06-22T05:10:09;18.90;99.90
9385;DHT22;4732;49.340;10.886;2023-06-22T05:12:35;19.00;99.90
9385;DHT22;4732;49.340;10.886;2023-06-22T05:15:01;19.10;99.90
9385;DHT22;4732;49.340;10.886;2023-06-22T05:17:27;19.20;99.90
9385;DHT22;4732;49.340;10.886;2023-06-22T05:19:53;19.40;99.90
9385;DHT22;4732;49.340;10.886;2023-06-22T05:22:18;19.50;99.90
9385;DHT22;4732;49.340;10.886;2023-06-22T05:24:44;19.50;99.90
9385;DHT22;4732;49.340;10.886;2023-06-22T05:27:10;19.60;99.90
9385;DHT22;4732;49.340;10.886;2023-06-22T05:29:37;19.70;99.90
9385;DHT22;4732;49.340;10.886;2023-06-22T05:32:03;19.80;99.90
9385;DHT22;4732;49.340;10.886;2023-06-22T05:34:28;19.90;99.90
9385;DHT22;4732;49.340;10.886;2023-06-22T05:36:54;19.90;99.90
9385;DHT22;4732;49.340;10.886;2023-06-22T05:39:19;20.10;99.90
9385;DHT22;4732;49.340;10.886;2023-06-22T05:41:46;20.20;99.90
9385;DHT22;4732;49.340;10.886;2023-06-22T05:44:12;20.30;99.90
9385;DHT22;4732;49.340;10.886;2023-06-22T05:46:40;20.30;99.90
9385;DHT22;4732;49.340;10.886;2023-06-22T05:49:10;20.40;99.90
9385;DHT22;4732;49.340;10.886;2023-06-22T05:51:35;20.50;99.90
9385;DHT22;4732;49.340;10.886;2023-06-22T05:54:01;20.60;99.90
9385;DHT22;4732;49.340;10.886;2023-06-22T05:56:26;20.70;99.90
9385;DHT22;4732;49.340;10.886;2023-06-22T05:58:52;20.70;99.90
9385;DHT22;4732;49.340;10.886;2023-06-22T06:01:17;21.00;99.90
9385;DHT22;4732;49.340;10.886;2023-06-22T06:03:43;21.00;99.90
9385;DHT22;4732;49.340;10.886;2023-06-22T06:06:09;21.10;99.90
9385;DHT22;4732;49.340;10.886;2023-06-22T06:08:36;21.20;99.90
9385;DHT22;4732;49.340;10.886;2023-06-22T06:11:02;21.30;99.90
9385;DHT22;4732;49.340;10.886;2023-06-22T06:13:27;21.50;99.90
9385;DHT22;4732;49.340;10.886;2023-06-22T06:15:53;21.50;99.90
9385;DHT22;4732;49.340;10.886;2023-06-22T06:18:20;21.60;99.90
9385;DHT22;4732;49.340;10.886;2023-06-22T06:20:46;21.70;99.90
9385;DHT22;4732;49.340;10.886;2023-06-22T06:23:11;21.80;99.90
9385;DHT22;4732;49.340;10.886;2023-06-22T06:25:37;21.80;99.90
9385;DHT22;4732;49.340;10.886;2023-06-22T06:28:02;21.90;99.90
9385;DHT22;4732;49.340;10.886;2023-06-22T06:30:28;22.00;99.90
9385;DHT22;4732;49.340;10.886;2023-06-22T06:32:54;22.10;99.90
9385;DHT22;4732;49.340;10.886;2023-06-22T06:35:19;22.20;99.90
9385;DHT22;4732;49.340;10.886;2023-06-22T06:37:47;22.30;99.90
9385;DHT22;4732;49.340;10.886;2023-06-22T06:40:14;22.30;99.90
9385;DHT22;4732;49.340;10.886;2023-06-22T06:42:42;22.40;99.90
9385;DHT22;4732;49.340;10.886;2023-06-22T06:45:10;22.40;99.90
9385;DHT22;4732;49.340;10.886;2023-06-22T06:47:36;22.50;99.90
9385;DHT22;4732;49.340;10.886;2023-06-22T06:50:03;22.50;99.90
9385;DHT22;4732;49.340;10.886;2023-06-22T06:52:29;22.70;99.90
9385;DHT22;4732;49.340;10.886;2023-06-22T06:54:54;22.80;99.90
9385;DHT22;4732;49.340;10.886;2023-06-22T06:57:20;22.90;99.90
9385;DHT22;4732;49.340;10.886;2023-06-22T06:59:46;23.00;99.90
9385;DHT22;4732;49.340;10.886;2023-06-22T07:02:11;23.10;99.90
9385;DHT22;4732;49.340;10.886;2023-06-22T07:04:37;23.10;99.90
9385;DHT22;4732;49.340;10.886;2023-06-22T07:07:02;23.20;99.90
9385;DHT22;4732;49.340;10.886;2023-06-22T07:09:28;23.30;99.90
9385;DHT22;4732;49.340;10.886;2023-06-22T07:11:53;23.40;99.90
9385;DHT22;4732;49.340;10.886;2023-06-22T07:14:19;23.40;99.90
9385;DHT22;4732;49.340;10.886;2023-06-22T07:16:44;23.50;99.90
9385;DHT22;4732;49.340;10.886;2023-06-22T07:19:12;23.60;99.90
9385;DHT22;4732;49.340;10.886;2023-06-22T07:21:38;23.70;99.90
9385;DHT22;4732;49.340;10.886;2023-06-22T07:24:04;23.90;99.90
9385;DHT22;4732;49.340;10.886;2023-06-22T07:26:31;24.00;99.90
9385;DHT22;4732;49.340;10.886;2023-06-22T07:28:57;24.10;99.90
9385;DHT22;4732;49.340;10.886;2023-06-22T07:31:24;24.20;99.90
9385;DHT22;4732;49.340;10.886;2023-06-22T07:33:50;24.20;99.90
9385;DHT22;4732;49.340;10.886;2023-06-22T07:36:17;24.30;99.90
9385;DHT22;4732;49.340;10.886;2023-06-22T07:38:42;24.40;99.90
9385;DHT22;4732;49.340;10.886;2023-06-22T07:41:08;24.50;99.90
9385;DHT22;4732;49.340;10.886;2023-06-22T07:43:34;24.60;99.90
9385;DHT22;4732;49.340;10.886;2023-06-22T07:46:02;24.80;99.90
9385;DHT22;4732;49.340;10.886;2023-06-22T07:48:28;24.90;99.90
9385;DHT22;4732;49.340;10.886;2023-06-22T07:50:54;25.10;99.90
9385;DHT22;4732;49.340;10.886;2023-06-22T07:53:21;25.20;99.90
9385;DHT22;4732;49.340;10.886;2023-06-22T07:55:47;25.20;99.90
9385;DHT22;4732;49.340;10.886;2023-06-22T07:58:13;25.30;99.90
9385;DHT22;4732;49.340;10.886;2023-06-22T08:00:38;25.40;99.90
9385;DHT22;4732;49.340;10.886;2023-06-22T08:03:07;25.60;99.90
9385;DHT22;4732;49.340;10.886;2023-06-22T08:05:32;25.60;99.90
9385;DHT22;4732;49.340;10.886;2023-06-22T08:07:58;25.70;99.90
9385;DHT22;4732;49.340;10.886;2023-06-22T08:10:23;25.80;99.90
9385;DHT22;4732;49.340;10.886;2023-06-22T08:12:49;26.00;99.90
9385;DHT22;4732;49.340;10.886;2023-06-22T08:15:14;26.10;99.90
9385;DHT22;4732;49.340;10.886;2023-06-22T08:17:40;26.10;99.90
9385;DHT22;4732;49.340;10.886;2023-06-22T08:20:07;26.20;99.90
9385;DHT22;4732;49.340;10.886;2023-06-22T08:22:37;26.20;99.90
9385;DHT22;4732;49.340;10.886;2023-06-22T08:25:03;26.30;99.90
9385;DHT22;4732;49.340;10.886;2023-06-22T08:27:30;26.40;99.90
9385;DHT22;4732;49.340;10.886;2023-06-22T08:30:00;26.40;99.90
9385;DHT22;4732;49.340;10.886;2023-06-22T08:32:29;26.60;99.90
9385;DHT22;4732;49.340;10.886;2023-06-22T08:34:55;26.70;99.90
9385;DHT22;4732;49.340;10.886;2023-06-22T08:37:21;26.70;99.90
9385;DHT22;4732;49.340;10.886;2023-06-22T08:39:49;26.90;99.90
9385;DHT22;4732;49.340;10.886;2023-06-22T08:42:15;26.90;99.90
9385;DHT22;4732;49.340;10.886;2023-06-22T08:44:41;27.10;99.90
9385;DHT22;4732;49.340;10.886;2023-06-22T08:47:07;27.10;99.90
9385;DHT22;4732;49.340;10.886;2023-06-22T08:49:32;27.20;99.90
9385;DHT22;4732;49.340;10.886;2023-06-22T08:51:58;27.30;99.90
9385;DHT22;4732;49.340;10.886;2023-06-22T08:54:23;27.50;99.90
9385;DHT22;4732;49.340;10.886;2023-06-22T08:56:49;27.60;99.90
9385;DHT22;4732;49.340;10.886;2023-06-22T08:59:14;27.70;99.90
9385;DHT22;4732;49.340;10.886;2023-06-22T09:01:40;27.80;99.90
9385;DHT22;4732;49.340;10.886;2023-06-22T09:04:05;28.00;99.90
9385;DHT22;4732;49.340;10.886;2023-06-22T09:06:33;28.20;99.90
9385;DHT22;4732;49.340;10.886;2023-06-22T09:08:58;28.30;99.90
9385;DHT22;4732;49.340;10.886;2023-06-22T09:11:27;28.30;99.90
9385;DHT22;4732;49.340;10.886;2023-06-22T09:13:52;28.50;99.90
9385;DHT22;4732;49.340;10.886;2023-06-22T09:16:19;28.50;99.90
9385;DHT22;4732;49.340;10.886;2023-06-22T09:18:47;28.60;99.90
9385;DHT22;4732;49.340;10.886;2023-06-22T09:21:13;28.80;99.90
9385;DHT22;4732;49.340;10.886;2023-06-22T09:23:38;28.90;99.90
9385;DHT22;4732;49.340;10.886;2023-06-22T09:26:04;29.00;99.90
9385;DHT22;4732;49.340;10.886;2023-06-22T09:28:29;29.10;99.90
9385;DHT22;4732;49.340;10.886;2023-06-22T09:30:55;29.10;99.90
9385;DHT22;4732;49.340;10.886;2023-06-22T09:33:24;29.20;99.90
9385;DHT22;4732;49.340;10.886;2023-06-22T09:35:49;29.40;99.90
9385;DHT22;4732;49.340;10.886;2023-06-22T09:38:16;29.60;99.90
9385;DHT22;4732;49.340;10.886;2023-06-22T09:40:42;29.60;99.90
9385;DHT22;4732;49.340;10.886;2023-06-22T09:43:08;29.60;99.90
9385;DHT22;4732;49.340;10.886;2023-06-22T09:45:33;29.80;99.90
9385;DHT22;4732;49.340;10.886;2023-06-22T09:47:59;29.90;99.90
9385;DHT22;4732;49.340;10.886;2023-06-22T09:50:24;30.00;99.90
9385;DHT22;4732;49.340;10.886;2023-06-22T09:52:50;30.10;99.90
9385;DHT22;4732;49.340;10.886;2023-06-22T09:55:23;30.20;99.90
9385;DHT22;4732;49.340;10.886;2023-06-22T09:57:48;30.30;99.90
9385;DHT22;4732;49.340;10.886;2023-06-22T10:00:16;30.40;99.90
9385;DHT22;4732;49.340;10.886;2023-06-22T10:02:42;30.40;99.90
9385;DHT22;4732;49.340;10.886;2023-06-22T10:05:08;30.40;99.90
9385;DHT22;4732;49.340;10.886;2023-06-22T10:07:33;30.40;99.90
9385;DHT22;4732;49.340;10.886;2023-06-22T10:09:59;30.60;99.90
9385;DHT22;4732;49.340;10.886;2023-06-22T10:12:26;30.70;99.90
9385;DHT22;4732;49.340;10.886;2023-06-22T10:14:52;30.80;99.90
9385;DHT22;4732;49.340;10.886;2023-06-22T10:17:18;30.90;99.90
9385;DHT22;4732;49.340;10.886;2023-06-22T10:19:43;31.20;99.90
9385;DHT22;4732;49.340;10.886;2023-06-22T10:22:09;31.40;99.90
9385;DHT22;4732;49.340;10.886;2023-06-22T10:24:34;31.40;99.90
9385;DHT22;4732;49.340;10.886;2023-06-22T10:27:00;31.80;99.90
9385;DHT22;4732;49.340;10.886;2023-06-22T10:29:25;31.60;99.90
9385;DHT22;4732;49.340;10.886;2023-06-22T10:31:51;31.60;99.90
9385;DHT22;4732;49.340;10.886;2023-06-22T10:34:16;31.70;99.90
9385;DHT22;4732;49.340;10.886;2023-06-22T10:36:42;31.70;99.90
9385;DHT22;4732;49.340;10.886;2023-06-22T10:39:07;31.80;99.90
9385;DHT22;4732;49.340;10.886;2023-06-22T10:41:34;31.80;99.90
9385;DHT22;4732;49.340;10.886;2023-06-22T10:44:00;31.90;99.90
9385;DHT22;4732;49.340;10.886;2023-06-22T10:46:25;32.00;99.90
9385;DHT22;4732;49.340;10.886;2023-06-22T10:48:52;32.10;99.90
9385;DHT22;4732;49.340;10.886;2023-06-22T10:51:19;32.10;99.90
9385;DHT22;4732;49.340;10.886;2023-06-22T10:53:45;32.10;99.90
9385;DHT22;4732;49.340;10.886;2023-06-22T10:56:10;32.30;99.90
9385;DHT22;4732;49.340;10.886;2023-06-22T10:58:36;32.40;99.90
9385;DHT22;4732;49.340;10.886;2023-06-22T11:01:01;32.50;99.90
9385;DHT22;4732;49.340;10.886;2023-06-22T11:03:28;32.50;99.90
9385;DHT22;4732;49.340;10.886;2023-06-22T11:05:54;32.60;99.90
9385;DHT22;4732;49.340;10.886;2023-06-22T11:08:19;32.60;99.90
9385;DHT22;4732;49.340;10.886;2023-06-22T11:10:45;32.70;99.90
9385;DHT22;4732;49.340;10.886;2023-06-22T11:13:10;32.70;99.60
9385;DHT22;4732;49.340;10.886;2023-06-22T11:15:36;32.90;99.20
9385;DHT22;4732;49.340;10.886;2023-06-22T11:18:01;32.80;98.90
9385;DHT22;4732;49.340;10.886;2023-06-22T11:20:27;32.80;99.30
9385;DHT22;4732;49.340;10.886;2023-06-22T11:22:52;32.90;99.30
9385;DHT22;4732;49.340;10.886;2023-06-22T11:25:18;33.00;98.50
9385;DHT22;4732;49.340;10.886;2023-06-22T11:27:43;33.10;99.20
9385;DHT22;4732;49.340;10.886;2023-06-22T11:30:09;33.20;98.40
9385;DHT22;4732;49.340;10.886;2023-06-22T11:32:35;33.20;98.80
9385;DHT22;4732;49.340;10.886;2023-06-22T11:35:01;33.30;98.80
9385;DHT22;4732;49.340;10.886;2023-06-22T11:37:26;33.50;98.50
9385;DHT22;4732;49.340;10.886;2023-06-22T11:39:51;33.50;98.20
9385;DHT22;4732;49.340;10.886;2023-06-22T11:42:20;33.70;97.80
9385;DHT22;4732;49.340;10.886;2023-06-22T11:44:45;33.80;97.30
9385;DHT22;4732;49.340;10.886;2023-06-22T11:47:11;33.90;97.40
9385;DHT22;4732;49.340;10.886;2023-06-22T11:49:36;34.00;97.60
9385;DHT22;4732;49.340;10.886;2023-06-22T11:52:02;34.20;98.30
9385;DHT22;4732;49.340;10.886;2023-06-22T11:54:27;34.30;97.60
9385;DHT22;4732;49.340;10.886;2023-06-22T11:56:53;34.40;97.00
9385;DHT22;4732;49.340;10.886;2023-06-22T11:59:18;34.50;95.60
9385;DHT22;4732;49.340;10.886;2023-06-22T12:01:44;34.40;96.20
9385;DHT22;4732;49.340;10.886;2023-06-22T12:04:10;34.50;96.00
9385;DHT22;4732;49.340;10.886;2023-06-22T12:06:38;34.60;96.60
9385;DHT22;4732;49.340;10.886;2023-06-22T12:09:04;34.60;97.80
9385;DHT22;4732;49.340;10.886;2023-06-22T12:11:30;34.80;94.60
9385;DHT22;4732;49.340;10.886;2023-06-22T12:13:55;34.50;94.50
9385;DHT22;4732;49.340;10.886;2023-06-22T12:16:21;35.10;95.30
9385;DHT22;4732;49.340;10.886;2023-06-22T12:18:47;35.20;95.70
9385;DHT22;4732;49.340;10.886;2023-06-22T12:21:12;35.10;94.50
9385;DHT22;4732;49.340;10.886;2023-06-22T12:23:38;35.00;95.00
9385;DHT22;4732;49.340;10.886;2023-06-22T12:26:03;35.00;93.70
9385;DHT22;4732;49.340;10.886;2023-06-22T12:28:29;35.20;94.60
9385;DHT22;4732;49.340;10.886;2023-06-22T12:30:54;35.40;93.50
9385;DHT22;4732;49.340;10.886;2023-06-22T12:33:20;35.20;94.10
9385;DHT22;4732;49.340;10.886;2023-06-22T12:35:46;35.30;93.60
9385;DHT22;4732;49.340;10.886;2023-06-22T12:38:14;35.30;93.90
9385;DHT22;4732;49.340;10.886;2023-06-22T12:40:39;35.70;92.20
9385;DHT22;4732;49.340;10.886;2023-06-22T12:43:05;35.60;92.70
9385;DHT22;4732;49.340;10.886;2023-06-22T12:45:30;35.60;92.70
9385;DHT22;4732;49.340;10.886;2023-06-22T12:47:58;35.50;93.00
9385;DHT22;4732;49.340;10.886;2023-06-22T12:50:25;35.20;93.70
9385;DHT22;4732;49.340;10.886;2023-06-22T12:52:50;35.10;92.70
9385;DHT22;4732;49.340;10.886;2023-06-22T12:55:16;35.00;92.60
9385;DHT22;4732;49.340;10.886;2023-06-22T12:57:41;35.20;92.70
9385;DHT22;4732;49.340;10.886;2023-06-22T13:00:07;35.20;93.00
9385;DHT22;4732;49.340;10.886;2023-06-22T13:02:35;35.20;92.50
9385;DHT22;4732;49.340;10.886;2023-06-22T13:05:01;35.10;92.70
9385;DHT22;4732;49.340;10.886;2023-06-22T13:07:27;34.80;93.30
9385;DHT22;4732;49.340;10.886;2023-06-22T13:09:53;34.50;93.50
9385;DHT22;4732;49.340;10.886;2023-06-22T13:12:19;34.80;93.00
9385;DHT22;4732;49.340;10.886;2023-06-22T13:14:45;35.00;93.10
9385;DHT22;4732;49.340;10.886;2023-06-22T13:17:12;35.10;92.90
9385;DHT22;4732;49.340;10.886;2023-06-22T13:19:38;35.20;93.70
9385;DHT22;4732;49.340;10.886;2023-06-22T13:22:04;35.40;91.90
9385;DHT22;4732;49.340;10.886;2023-06-22T13:24:30;35.40;92.60
9385;DHT22;4732;49.340;10.886;2023-06-22T13:26:55;35.40;91.80
9385;DHT22;4732;49.340;10.886;2023-06-22T13:29:21;35.10;92.50
9385;DHT22;4732;49.340;10.886;2023-06-22T13:31:46;35.10;92.40
9385;DHT22;4732;49.340;10.886;2023-06-22T13:34:12;35.00;92.70
9385;DHT22;4732;49.340;10.886;2023-06-22T13:36:38;34.70;92.80
9385;DHT22;4732;49.340;10.886;2023-06-22T13:39:03;34.60;93.50
9385;DHT22;4732;49.340;10.886;2023-06-22T13:41:29;35.10;93.50
9385;DHT22;4732;49.340;10.886;2023-06-22T13:43:54;35.00;93.60
9385;DHT22;4732;49.340;10.886;2023-06-22T13:46:20;35.20;93.20
9385;DHT22;4732;49.340;10.886;2023-06-22T13:48:45;35.30;92.20
9385;DHT22;4732;49.340;10.886;2023-06-22T13:51:11;35.20;92.60
9385;DHT22;4732;49.340;10.886;2023-06-22T13:53:36;35.10;92.60
9385;DHT22;4732;49.340;10.886;2023-06-22T13:56:02;35.10;92.80
9385;DHT22;4732;49.340;10.886;2023-06-22T13:58:28;34.90;92.50
9385;DHT22;4732;49.340;10.886;2023-06-22T14:00:53;35.10;91.50
9385;DHT22;4732;49.340;10.886;2023-06-22T14:03:19;35.30;91.60
9385;DHT22;4732;49.340;10.886;2023-06-22T14:05:44;35.20;91.90
9385;DHT22;4732;49.340;10.886;2023-06-22T14:08:13;35.10;92.20
9385;DHT22;4732;49.340;10.886;2023-06-22T14:10:38;35.00;93.30
9385;DHT22;4732;49.340;10.886;2023-06-22T14:13:04;34.80;92.60
9385;DHT22;4732;49.340;10.886;2023-06-22T14:15:31;34.60;91.60
9385;DHT22;4732;49.340;10.886;2023-06-22T14:17:57;34.60;91.70
9385;DHT22;4732;49.340;10.886;2023-06-22T14:20:22;34.60;92.00
9385;DHT22;4732;49.340;10.886;2023-06-22T14:22:48;34.60;92.50
9385;DHT22;4732;49.340;10.886;2023-06-22T14:25:13;34.80;91.80
9385;DHT22;4732;49.340;10.886;2023-06-22T14:27:39;34.90;91.70
9385;DHT22;4732;49.340;10.886;2023-06-22T14:30:05;34.80;91.60
9385;DHT22;4732;49.340;10.886;2023-06-22T14:32:31;34.50;91.30
9385;DHT22;4732;49.340;10.886;2023-06-22T14:34:56;34.30;92.50
9385;DHT22;4732;49.340;10.886;2023-06-22T14:37:22;34.10;93.60
9385;DHT22;4732;49.340;10.886;2023-06-22T14:39:47;33.90;92.50
9385;DHT22;4732;49.340;10.886;2023-06-22T14:42:13;34.00;94.10
9385;DHT22;4732;49.340;10.886;2023-06-22T14:44:41;34.20;94.20
9385;DHT22;4732;49.340;10.886;2023-06-22T14:47:07;34.40;93.50
9385;DHT22;4732;49.340;10.886;2023-06-22T14:49:33;34.70;94.10
9385;DHT22;4732;49.340;10.886;2023-06-22T14:51:58;35.10;92.30
9385;DHT22;4732;49.340;10.886;2023-06-22T14:54:23;35.50;91.30
9385;DHT22;4732;49.340;10.886;2023-06-22T14:56:50;35.70;91.50
9385;DHT22;4732;49.340;10.886;2023-06-22T14:59:16;35.80;90.50
9385;DHT22;4732;49.340;10.886;2023-06-22T15:01:41;35.70;90.80
9385;DHT22;4732;49.340;10.886;2023-06-22T15:04:07;35.70;91.00
9385;DHT22;4732;49.340;10.886;2023-06-22T15:06:32;36.00;91.40
9385;DHT22;4732;49.340;10.886;2023-06-22T15:08:58;36.00;89.90
9385;DHT22;4732;49.340;10.886;2023-06-22T15:11:23;36.00;89.50
9385;DHT22;4732;49.340;10.886;2023-06-22T15:13:49;36.20;88.80
9385;DHT22;4732;49.340;10.886;2023-06-22T15:16:14;36.50;90.20
9385;DHT22;4732;49.340;10.886;2023-06-22T15:18:40;36.70;88.50
9385;DHT22;4732;49.340;10.886;2023-06-22T15:21:07;36.80;87.30
9385;DHT22;4732;49.340;10.886;2023-06-22T15:23:33;36.90;88.50
9385;DHT22;4732;49.340;10.886;2023-06-22T15:26:00;36.90;87.80
9385;DHT22;4732;49.340;10.886;2023-06-22T15:28:27;37.00;87.50
9385;DHT22;4732;49.340;10.886;2023-06-22T15:30:53;36.90;84.50
9385;DHT22;4732;49.340;10.886;2023-06-22T15:33:18;36.90;85.80
9385;DHT22;4732;49.340;10.886;2023-06-22T15:35:44;36.70;86.60
9385;DHT22;4732;49.340;10.886;2023-06-22T15:38:10;36.90;84.50
9385;DHT22;4732;49.340;10.886;2023-06-22T15:40:35;36.90;84.70
9385;DHT22;4732;49.340;10.886;2023-06-22T15:43:01;36.80;83.90
9385;DHT22;4732;49.340;10.886;2023-06-22T15:45:26;36.60;83.40
9385;DHT22;4732;49.340;10.886;2023-06-22T15:47:52;36.70;83.00
9385;DHT22;4732;49.340;10.886;2023-06-22T15:50:17;36.70;83.30
9385;DHT22;4732;49.340;10.886;2023-06-22T15:52:43;36.70;84.30
9385;DHT22;4732;49.340;10.886;2023-06-22T15:55:14;36.70;83.30
9385;DHT22;4732;49.340;10.886;2023-06-22T15:57:39;36.70;82.20
9385;DHT22;4732;49.340;10.886;2023-06-22T16:00:07;36.40;83.80
9385;DHT22;4732;49.340;10.886;2023-06-22T16:02:33;36.30;83.20
9385;DHT22;4732;49.340;10.886;2023-06-22T16:04:59;36.40;86.10
9385;DHT22;4732;49.340;10.886;2023-06-22T16:07:24;36.60;84.30
9385;DHT22;4732;49.340;10.886;2023-06-22T16:09:50;36.40;83.00
9385;DHT22;4732;49.340;10.886;2023-06-22T16:12:15;36.40;82.80
9385;DHT22;4732;49.340;10.886;2023-06-22T16:14:41;36.30;84.80
9385;DHT22;4732;49.340;10.886;2023-06-22T16:17:07;36.20;84.70
9385;DHT22;4732;49.340;10.886;2023-06-22T16:19:32;36.30;83.90
9385;DHT22;4732;49.340;10.886;2023-06-22T16:21:58;35.90;82.60
9385;DHT22;4732;49.340;10.886;2023-06-22T16:24:24;36.00;84.60
9385;DHT22;4732;49.340;10.886;2023-06-22T16:26:49;36.10;83.40
9385;DHT22;4732;49.340;10.886;2023-06-22T16:29:15;36.10;82.70
9385;DHT22;4732;49.340;10.886;2023-06-22T16:31:41;36.20;83.00
9385;DHT22;4732;49.340;10.886;2023-06-22T16:34:06;36.30;81.80
9385;DHT22;4732;49.340;10.886;2023-06-22T16:36:32;36.20;81.60
9385;DHT22;4732;49.340;10.886;2023-06-22T16:38:57;36.10;81.60
9385;DHT22;4732;49.340;10.886;2023-06-22T16:41:23;36.10;80.20
9385;DHT22;4732;49.340;10.886;2023-06-22T16:43:51;36.10;85.10
9385;DHT22;4732;49.340;10.886;2023-06-22T16:46:16;35.60;81.20
9385;DHT22;4732;49.340;10.886;2023-06-22T16:48:42;35.60;82.30
9385;DHT22;4732;49.340;10.886;2023-06-22T16:51:14;35.60;81.40
9385;DHT22;4732;49.340;10.886;2023-06-22T16:53:40;35.60;80.30
9385;DHT22;4732;49.340;10.886;2023-06-22T16:56:05;35.60;81.10
9385;DHT22;4732;49.340;10.886;2023-06-22T16:58:31;35.50;82.90
9385;DHT22;4732;49.340;10.886;2023-06-22T17:00:57;35.40;81.10
9385;DHT22;4732;49.340;10.886;2023-06-22T17:05:54;35.20;79.00
9385;DHT22;4732;49.340;10.886;2023-06-22T17:08:20;35.10;80.00
9385;DHT22;4732;49.340;10.886;2023-06-22T17:10:46;34.80;85.00
9385;DHT22;4732;49.340;10.886;2023-06-22T17:13:12;34.50;86.20
9385;DHT22;4732;49.340;10.886;2023-06-22T17:15:39;34.40;85.50
9385;DHT22;4732;49.340;10.886;2023-06-22T17:18:07;34.20;86.40
9385;DHT22;4732;49.340;10.886;2023-06-22T17:20:32;33.90;85.20
9385;DHT22;4732;49.340;10.886;2023-06-22T17:22:58;33.80;85.50
9385;DHT22;4732;49.340;10.886;2023-06-22T17:25:24;33.60;86.40
9385;DHT22;4732;49.340;10.886;2023-06-22T17:28:01;33.50;91.80
9385;DHT22;4732;49.340;10.886;2023-06-22T17:30:27;33.30;93.30
9385;DHT22;4732;49.340;10.886;2023-06-22T17:32:52;33.10;93.30
9385;DHT22;4732;49.340;10.886;2023-06-22T17:35:18;33.00;94.10
9385;DHT22;4732;49.340;10.886;2023-06-22T17:37:54;32.80;95.40
9385;DHT22;4732;49.340;10.886;2023-06-22T17:40:23;32.70;96.50
9385;DHT22;4732;49.340;10.886;2023-06-22T17:42:49;32.40;95.40
9385;DHT22;4732;49.340;10.886;2023-06-22T17:45:22;32.10;95.00
9385;DHT22;4732;49.340;10.886;2023-06-22T17:47:50;32.00;95.10
9385;DHT22;4732;49.340;10.886;2023-06-22T17:50:16;31.90;96.10
9385;DHT22;4732;49.340;10.886;2023-06-22T17:52:52;31.90;94.30
9385;DHT22;4732;49.340;10.886;2023-06-22T17:55:22;31.70;94.70
9385;DHT22;4732;49.340;10.886;2023-06-22T17:57:53;31.70;96.30
9385;DHT22;4732;49.340;10.886;2023-06-22T18:00:19;31.60;97.30
9385;DHT22;4732;49.340;10.886;2023-06-22T18:02:45;31.50;97.80
9385;DHT22;4732;49.340;10.886;2023-06-22T18:05:11;31.40;98.20
9385;DHT22;4732;49.340;10.886;2023-06-22T18:07:37;31.10;99.80
9385;DHT22;4732;49.340;10.886;2023-06-22T18:10:08;30.90;99.90
9385;DHT22;4732;49.340;10.886;2023-06-22T18:12:35;30.90;99.90
9385;DHT22;4732;49.340;10.886;2023-06-22T18:15:02;30.70;99.90
9385;DHT22;4732;49.340;10.886;2023-06-22T18:17:28;30.50;99.90
9385;DHT22;4732;49.340;10.886;2023-06-22T18:19:57;30.50;99.90
9385;DHT22;4732;49.340;10.886;2023-06-22T18:22:25;30.10;99.90
9385;DHT22;4732;49.340;10.886;2023-06-22T18:24:52;30.00;99.00
9385;DHT22;4732;49.340;10.886;2023-06-22T18:27:18;30.10;98.50
9385;DHT22;4732;49.340;10.886;2023-06-22T18:29:44;30.00;98.30
9385;DHT22;4732;49.340;10.886;2023-06-22T18:32:11;30.10;98.00
9385;DHT22;4732;49.340;10.886;2023-06-22T18:34:38;30.00;97.20
9385;DHT22;4732;49.340;10.886;2023-06-22T18:37:06;29.90;97.10
9385;DHT22;4732;49.340;10.886;2023-06-22T18:39:35;29.90;97.50